createdAt,value
2023-02-25T00:02:15.819Z,67.80
2023-02-25T00:04:52.153Z,65.47
2023-02-25T00:07:30.462Z,68.50
2023-02-25T00:10:06.273Z,63.17
2023-02-25T00:12:44.752Z,64.30
2023-02-25T00:15:20.348Z,66.53
2023-02-25T00:17:56.433Z,66.43
2023-02-25T00:20:32.351Z,62.17
2023-02-25T00:23:08.310Z,73.30
2023-02-25T00:25:46.880Z,67.77
2023-02-25T00:28:25.345Z,73.47
2023-02-25T00:31:01.632Z,68.07
2023-02-25T00:33:37.689Z,70.23
2023-02-25T00:36:15.449Z,68.57
2023-02-25T00:38:52.340Z,62.63
2023-02-25T00:41:29.779Z,66.37
2023-02-25T00:44:09.158Z,70.87
2023-02-25T00:46:46.476Z,71.13
2023-02-25T00:49:32.189Z,73.43
2023-02-25T00:52:12.139Z,70.27
2023-02-25T00:54:48.249Z,66.37
2023-02-25T00:57:24.681Z,66.07
2023-02-25T01:00:03.582Z,62.37
2023-02-25T01:02:39.863Z,63.13
2023-02-25T01:05:16.330Z,62.70
2023-02-25T01:07:52.879Z,57.93
2023-02-25T01:10:30.420Z,63.70
2023-02-25T01:13:09.587Z,60.47
2023-02-25T01:15:51.105Z,61.73
2023-02-25T01:18:29.298Z,58.60
2023-02-25T01:21:08.145Z,59.93
2023-02-25T01:23:45.914Z,57.80
2023-02-25T01:26:24.411Z,58.67
2023-02-25T01:29:07.987Z,59.80
2023-02-25T01:31:47.033Z,57.27
2023-02-25T01:34:24.946Z,57.80
2023-02-25T01:37:10.484Z,52.37
2023-02-25T01:39:49.474Z,56.73
2023-02-25T01:42:28.038Z,54.20
2023-02-25T01:45:37.331Z,54.90
2023-02-25T01:48:21.636Z,56.77
2023-02-25T01:51:06.718Z,58.67
2023-02-25T01:53:48.048Z,59.70
2023-02-25T01:56:34.885Z,56.30
2023-02-25T01:59:15.005Z,58.17
2023-02-25T02:01:52.546Z,56.10
2023-02-25T02:04:31.920Z,57.67
2023-02-25T02:07:08.844Z,58.20
2023-02-25T02:09:57.807Z,53.03
2023-02-25T02:12:38.625Z,61.33
2023-02-25T02:15:18.316Z,60.90
2023-02-25T02:18:01.624Z,55.33
2023-02-25T02:20:56.876Z,65.87
2023-02-25T02:24:18.387Z,57.63
2023-02-25T02:27:16.714Z,59.13
2023-02-25T02:30:19.785Z,70.83
2023-02-25T02:33:27.908Z,60.13
2023-02-25T02:36:15.658Z,59.40
2023-02-25T02:38:59.905Z,57.63
2023-02-25T02:41:43.157Z,54.63
2023-02-25T02:44:22.407Z,53.37
2023-02-25T02:47:02.528Z,56.87
2023-02-25T02:49:50.240Z,57.70
2023-02-25T02:52:34.716Z,53.83
2023-02-25T02:55:23.926Z,51.87
2023-02-25T02:58:16.180Z,53.73
2023-02-25T03:00:57.079Z,54.23
2023-02-25T03:03:49.947Z,52.13
2023-02-25T03:06:42.769Z,54.90
2023-02-25T03:09:24.091Z,56.67
2023-02-25T03:12:00.486Z,51.77
2023-02-25T03:14:47.236Z,58.40
2023-02-25T03:17:31.444Z,57.47
2023-02-25T03:20:15.761Z,53.97
2023-02-25T03:22:59.111Z,58.70
2023-02-25T03:25:40.950Z,56.13
2023-02-25T03:28:29.764Z,59.27
2023-02-25T03:31:11.250Z,56.30
2023-02-25T03:33:52.188Z,54.77
2023-02-25T03:36:34.920Z,59.93
2023-02-25T03:39:21.785Z,58.33
2023-02-25T03:42:08.122Z,57.83
2023-02-25T03:44:50.682Z,60.97
2023-02-25T03:47:33.079Z,57.17
2023-02-25T03:50:30.978Z,60.60
2023-02-25T03:53:12.760Z,64.63
2023-02-25T03:56:26.155Z,61.97
2023-02-25T03:59:04.206Z,64.00
2023-02-25T04:01:43.807Z,63.53
2023-02-25T04:04:21.380Z,63.93
2023-02-25T04:06:57.929Z,64.27
2023-02-25T04:09:34.486Z,61.17
2023-02-25T04:12:19.120Z,60.83
2023-02-25T04:14:55.306Z,60.07
2023-02-25T04:18:01.374Z,65.37
2023-02-25T04:20:38.120Z,61.43
2023-02-25T04:23:18.562Z,64.60
2023-02-25T04:25:56.669Z,67.37
2023-02-25T04:28:37.062Z,63.33
2023-02-25T04:31:35.701Z,61.23
2023-02-25T04:34:21.435Z,64.27
2023-02-25T04:36:59.866Z,66.37
2023-02-25T04:39:36.726Z,65.23
2023-02-25T04:42:18.917Z,66.20
2023-02-25T04:44:59.190Z,67.77
2023-02-25T04:47:41.457Z,63.37
2023-02-25T04:50:18.883Z,66.30
2023-02-25T04:53:00.008Z,69.23
2023-02-25T04:55:45.387Z,68.83
2023-02-25T04:58:30.043Z,70.93
2023-02-25T05:01:14.543Z,74.43
2023-02-25T05:03:51.120Z,71.50
2023-02-25T05:06:29.387Z,76.03
2023-02-25T05:09:14.064Z,71.70
2023-02-25T05:11:54.036Z,71.37
2023-02-25T05:14:38.261Z,76.20
2023-02-25T05:17:25.605Z,74.00
2023-02-25T05:20:04.194Z,69.73
2023-02-25T05:22:41.039Z,69.57
2023-02-25T05:25:18.195Z,75.07
2023-02-25T05:27:57.857Z,73.63
2023-02-25T05:30:35.971Z,78.90
2023-02-25T05:33:16.649Z,72.93
2023-02-25T05:35:56.299Z,66.97
2023-02-25T05:38:43.657Z,68.90
2023-02-25T05:41:23.657Z,73.80
2023-02-25T05:44:15.374Z,75.63
2023-02-25T05:46:52.882Z,72.77
2023-02-25T05:49:40.370Z,74.13
2023-02-25T05:52:18.310Z,77.27
2023-02-25T05:54:59.551Z,74.23
2023-02-25T05:57:42.677Z,74.90
2023-02-25T06:00:22.989Z,73.87
2023-02-25T06:03:08.782Z,80.83
2023-02-25T06:05:55.174Z,72.67
2023-02-25T06:08:33.294Z,74.90
2023-02-25T06:11:21.016Z,73.77
2023-02-25T06:14:07.824Z,77.97
2023-02-25T06:17:05.480Z,72.70
2023-02-25T06:19:45.355Z,77.10
2023-02-25T06:22:36.794Z,76.73
2023-02-25T06:25:20.612Z,80.60
2023-02-25T06:27:57.218Z,80.33
2023-02-25T06:30:34.679Z,73.23
2023-02-25T06:33:22.720Z,78.67
2023-02-25T06:36:01.569Z,75.60
2023-02-25T06:38:43.921Z,71.57
2023-02-25T06:41:25.449Z,70.80
2023-02-25T06:44:03.793Z,74.87
2023-02-25T06:46:41.102Z,71.60
2023-02-25T06:49:20.394Z,73.37
2023-02-25T06:51:59.086Z,67.97
2023-02-25T06:54:50.082Z,65.27
2023-02-25T06:57:27.811Z,68.67
2023-02-25T07:00:10.070Z,66.27
2023-02-25T07:02:47.516Z,63.77
2023-02-25T07:05:25.811Z,68.77
2023-02-25T07:08:02.213Z,66.53
2023-02-25T07:10:43.613Z,69.47
2023-02-25T07:13:22.133Z,66.87
2023-02-25T07:16:02.365Z,70.87
2023-02-25T07:18:43.418Z,64.03
2023-02-25T07:21:24.454Z,70.87
2023-02-25T07:24:01.042Z,66.33
2023-02-25T07:26:40.114Z,71.20
2023-02-25T07:29:17.887Z,64.23
2023-02-25T07:31:56.563Z,67.03
2023-02-25T07:34:40.837Z,68.77
2023-02-25T07:37:18.896Z,69.53
2023-02-25T07:40:14.848Z,78.27
2023-02-25T07:42:56.286Z,69.60
2023-02-25T07:45:46.538Z,68.53
2023-02-25T07:48:22.755Z,71.73
2023-02-25T07:51:24.299Z,75.77
2023-02-25T07:54:09.124Z,73.20
2023-02-25T07:56:47.712Z,71.30
2023-02-25T07:59:38.024Z,65.90
2023-02-25T08:02:23.292Z,67.87
2023-02-25T08:05:03.896Z,70.83
2023-02-25T08:07:42.374Z,71.83
2023-02-25T08:10:22.002Z,71.20
2023-02-25T08:13:01.725Z,69.67
2023-02-25T08:15:40.730Z,72.87
2023-02-25T08:18:21.487Z,74.10
2023-02-25T08:21:02.518Z,71.17
2023-02-25T08:23:44.626Z,79.27
2023-02-25T08:26:26.199Z,77.80
2023-02-25T08:29:05.684Z,78.83
2023-02-25T08:31:45.973Z,76.43
2023-02-25T08:34:27.625Z,74.40
2023-02-25T08:37:05.828Z,75.13
2023-02-25T08:39:42.565Z,75.80
2023-02-25T08:42:25.496Z,70.90
2023-02-25T08:45:02.391Z,76.03
2023-02-25T08:47:50.154Z,82.33
2023-02-25T08:50:31.398Z,74.90
2023-02-25T08:53:10.532Z,76.90
2023-02-25T08:55:50.136Z,76.53
2023-02-25T08:58:27.286Z,82.87
2023-02-25T09:01:04.411Z,81.70
2023-02-25T09:03:54.480Z,84.43
2023-02-25T09:06:33.658Z,79.33
2023-02-25T09:09:13.217Z,78.97
2023-02-25T09:11:57.614Z,73.30
2023-02-25T09:14:40.162Z,75.00
2023-02-25T09:17:22.815Z,69.83
2023-02-25T09:20:07.304Z,76.83
2023-02-25T09:22:48.077Z,73.40
2023-02-25T09:25:24.666Z,71.30
2023-02-25T09:28:01.305Z,72.03
2023-02-25T09:30:59.917Z,76.73
2023-02-25T09:33:39.505Z,71.90
2023-02-25T09:36:22.850Z,75.63
2023-02-25T09:39:05.419Z,70.80
2023-02-25T09:41:50.301Z,75.83
2023-02-25T09:44:31.697Z,81.30
2023-02-25T09:47:21.184Z,75.03
2023-02-25T09:50:02.049Z,73.93
2023-02-25T09:52:45.351Z,74.30
2023-02-25T09:55:29.516Z,71.87
2023-02-25T09:58:13.725Z,82.30
2023-02-25T10:01:09.653Z,69.03
2023-02-25T10:04:02.181Z,73.10
2023-02-25T10:06:44.136Z,71.57
2023-02-25T10:09:34.411Z,70.47
2023-02-25T10:12:29.773Z,73.63
2023-02-25T10:15:51.980Z,76.37
2023-02-25T10:18:44.373Z,71.30
2023-02-25T10:21:39.511Z,72.43
2023-02-25T10:24:33.521Z,75.77
2023-02-25T10:27:24.093Z,81.00
2023-02-25T10:30:06.935Z,72.80
2023-02-25T10:32:47.905Z,76.07
2023-02-25T10:35:29.261Z,78.10
2023-02-25T10:38:16.718Z,80.50
2023-02-25T10:40:59.451Z,71.60
2023-02-25T10:43:36.113Z,82.07
2023-02-25T10:46:18.605Z,74.60
2023-02-25T10:49:08.196Z,77.53
2023-02-25T10:52:04.837Z,87.53
2023-02-25T10:54:51.218Z,87.07
2023-02-25T10:57:34.014Z,86.60
2023-02-25T11:00:28.987Z,76.63
2023-02-25T11:03:10.732Z,82.80
2023-02-25T11:05:48.479Z,85.67
2023-02-25T11:08:38.717Z,82.37
2023-02-25T11:11:29.689Z,83.67
2023-02-25T11:14:19.094Z,80.13
2023-02-25T11:16:56.461Z,86.07
2023-02-25T11:19:43.325Z,93.07
2023-02-25T11:22:28.197Z,87.60
2023-02-25T11:25:10.422Z,92.17
2023-02-25T11:27:51.612Z,91.40
2023-02-25T11:30:36.699Z,93.93
2023-02-25T11:33:28.035Z,90.30
2023-02-25T11:36:07.733Z,92.43
2023-02-25T11:39:09.178Z,90.27
2023-02-25T11:41:51.655Z,96.13
2023-02-25T11:44:37.574Z,104.10
2023-02-25T11:47:36.462Z,93.90
2023-02-25T11:50:38.326Z,96.40
2023-02-25T11:53:37.874Z,100.03
2023-02-25T11:56:29.823Z,109.80
2023-02-25T11:59:43.621Z,103.17
2023-02-25T12:05:52.351Z,104.13
2023-02-25T12:08:49.745Z,99.80
2023-02-25T12:12:08.036Z,113.73
2023-02-25T12:15:07.967Z,103.90
2023-02-25T12:18:16.175Z,102.70
2023-02-25T12:21:31.762Z,96.53
2023-02-25T12:24:45.248Z,112.73
2023-02-25T12:28:12.332Z,103.23
2023-02-25T12:31:18.763Z,117.33
2023-02-25T12:34:22.874Z,113.90
2023-02-25T12:37:16.358Z,118.83
2023-02-25T12:40:30.415Z,110.40
2023-02-25T12:43:29.460Z,116.37
2023-02-25T12:46:46.540Z,126.53
2023-02-25T12:49:51.651Z,125.43
2023-02-25T12:52:43.600Z,132.03
2023-02-25T12:56:02.783Z,129.90
2023-02-25T12:59:09.920Z,137.50
2023-02-25T13:02:18.830Z,150.40
2023-02-25T13:05:27.053Z,140.50
2023-02-25T13:08:43.213Z,138.30
2023-02-25T13:11:42.160Z,138.13
2023-02-25T13:15:00.790Z,141.83
2023-02-25T13:18:14.730Z,142.70
2023-02-25T13:21:11.981Z,145.80
2023-02-25T13:24:19.056Z,138.73
2023-02-25T13:27:20.151Z,143.43
2023-02-25T13:30:13.840Z,137.83
2023-02-25T13:33:15.305Z,145.83
2023-02-25T13:36:07.359Z,147.93
2023-02-25T13:39:06.284Z,151.87
2023-02-25T13:41:59.204Z,145.23
2023-02-25T13:45:01.982Z,151.57
2023-02-25T13:48:02.417Z,145.57
2023-02-25T13:51:19.418Z,139.67
2023-02-25T13:54:12.051Z,145.30
2023-02-25T13:57:09.901Z,149.80
2023-02-25T14:00:35.119Z,152.33
2023-02-25T14:03:45.082Z,144.30
2023-02-25T14:06:47.466Z,150.80
2023-02-25T14:09:40.089Z,149.03
2023-02-25T14:12:28.604Z,170.67
2023-02-25T14:15:35.992Z,154.93
2023-02-25T14:18:37.211Z,161.90
2023-02-25T14:21:44.921Z,150.93
2023-02-25T14:24:27.999Z,159.07
2023-02-25T14:27:23.238Z,151.90
2023-02-25T14:30:29.845Z,158.80
2023-02-25T14:33:37.403Z,157.37
2023-02-25T14:36:54.587Z,151.40
2023-02-25T14:39:52.507Z,157.87
2023-02-25T14:42:53.339Z,160.27
2023-02-25T14:45:37.127Z,162.00
2023-02-25T14:48:19.978Z,163.23
2023-02-25T14:51:04.631Z,157.90
2023-02-25T14:54:20.770Z,160.33
2023-02-25T14:57:30.741Z,158.87
2023-02-25T15:00:47.792Z,158.77
2023-02-25T15:04:12.936Z,154.60
2023-02-25T15:07:11.768Z,158.57
2023-02-25T15:10:18.813Z,158.27
2023-02-25T15:13:27.359Z,166.70
2023-02-25T15:16:38.348Z,165.43
2023-02-25T15:19:57.260Z,161.83
2023-02-25T15:23:06.776Z,155.93
2023-02-25T15:26:35.085Z,171.57
2023-02-25T15:29:26.575Z,163.30
2023-02-25T15:32:35.098Z,161.50
2023-02-25T15:35:19.112Z,164.50
2023-02-25T15:38:23.856Z,166.33
2023-02-25T15:41:03.750Z,169.70
2023-02-25T15:43:54.992Z,163.23
2023-02-25T15:47:15.951Z,160.93
2023-02-25T15:50:06.888Z,163.67
2023-02-25T15:53:05.236Z,169.57
2023-02-25T15:55:52.424Z,165.80
2023-02-25T15:58:59.905Z,173.13
2023-02-25T16:01:50.581Z,175.77
2023-02-25T16:04:58.663Z,165.60
2023-02-25T16:07:45.302Z,167.10
2023-02-25T16:10:32.240Z,171.73
2023-02-25T16:13:13.632Z,174.67
2023-02-25T16:15:59.068Z,170.03
2023-02-25T16:18:41.656Z,166.47
2023-02-25T16:21:30.538Z,173.37
2023-02-25T16:24:18.298Z,169.20
2023-02-25T16:27:02.168Z,165.90
2023-02-25T16:30:02.811Z,178.47
2023-02-25T16:32:47.086Z,170.53
2023-02-25T16:35:30.374Z,178.53
2023-02-25T16:38:16.999Z,182.03
2023-02-25T16:40:54.225Z,176.40
2023-02-25T16:43:36.652Z,172.80
2023-02-25T16:46:19.182Z,176.23
2023-02-25T16:49:00.206Z,163.10
2023-02-25T16:51:43.079Z,176.13
2023-02-25T16:54:25.783Z,167.23
2023-02-25T16:57:11.140Z,185.30
2023-02-25T16:59:48.632Z,183.90
2023-02-25T17:02:32.552Z,172.77
2023-02-25T17:05:32.433Z,174.07
2023-02-25T17:08:10.868Z,174.00
2023-02-25T17:10:58.364Z,168.23
2023-02-25T17:13:41.618Z,171.33
2023-02-25T17:16:29.543Z,176.67
2023-02-25T17:19:08.145Z,165.87
2023-02-25T17:21:47.946Z,171.30
2023-02-25T17:24:28.796Z,178.20
2023-02-25T17:27:09.542Z,172.63
2023-02-25T17:29:45.709Z,176.23
2023-02-25T17:32:28.969Z,183.30
2023-02-25T17:35:07.655Z,174.17
2023-02-25T17:37:46.536Z,179.90
2023-02-25T17:40:23.920Z,177.03
2023-02-25T17:43:23.853Z,177.40
2023-02-25T17:46:04.171Z,176.60
2023-02-25T17:48:54.361Z,170.73
2023-02-25T17:51:37.780Z,179.80
2023-02-25T17:54:19.514Z,173.43
2023-02-25T17:57:02.455Z,187.13
2023-02-25T17:59:46.177Z,190.80
2023-02-25T18:02:40.258Z,174.93
2023-02-25T18:05:31.155Z,179.90
2023-02-25T18:08:23.485Z,182.23
2023-02-25T18:11:02.780Z,180.87
2023-02-25T18:13:41.063Z,186.60
2023-02-25T18:16:46.344Z,174.50
2023-02-25T18:19:43.822Z,177.83
2023-02-25T18:22:54.021Z,189.60
2023-02-25T18:25:40.969Z,180.77
2023-02-25T18:28:19.966Z,182.90
2023-02-25T18:30:56.314Z,184.63
2023-02-25T18:33:39.750Z,180.87
2023-02-25T18:36:20.390Z,177.40
2023-02-25T18:38:56.051Z,181.03
2023-02-25T18:41:31.973Z,172.63
2023-02-25T18:44:07.392Z,186.03
2023-02-25T18:46:43.951Z,170.93
2023-02-25T18:49:22.214Z,179.63
2023-02-25T18:51:58.799Z,181.53
2023-02-25T18:54:36.813Z,179.40
2023-02-25T18:57:27.282Z,182.03
2023-02-25T19:00:02.870Z,172.87
2023-02-25T19:02:39.604Z,176.97
2023-02-25T19:05:17.485Z,173.37
2023-02-25T19:07:53.668Z,171.67
2023-02-25T19:10:30.568Z,179.83
2023-02-25T19:13:09.258Z,176.57
2023-02-25T19:15:44.823Z,174.17
2023-02-25T19:18:21.002Z,181.37
2023-02-25T19:20:59.008Z,169.57
2023-02-25T19:23:34.501Z,178.20
2023-02-25T19:26:12.487Z,183.60
2023-02-25T19:28:48.357Z,188.40
2023-02-25T19:31:24.259Z,176.77
2023-02-25T19:34:00.082Z,181.80
2023-02-25T19:36:37.576Z,171.97
2023-02-25T19:39:12.150Z,181.80
2023-02-25T19:41:47.340Z,177.10
2023-02-25T19:44:22.262Z,179.37
2023-02-25T19:46:57.746Z,176.27
2023-02-25T19:49:33.378Z,185.07
2023-02-25T19:52:11.075Z,185.43
2023-02-25T19:54:46.838Z,180.60
2023-02-25T19:57:22.392Z,183.73
2023-02-25T19:59:57.251Z,183.27
2023-02-25T20:02:33.263Z,187.97
2023-02-25T20:05:08.330Z,190.97
2023-02-25T20:07:45.942Z,182.63
2023-02-25T20:10:21.336Z,194.93
2023-02-25T20:12:56.935Z,194.60
2023-02-25T20:15:31.735Z,188.77
2023-02-25T20:18:07.257Z,192.30
2023-02-25T20:20:44.868Z,201.07
2023-02-25T20:23:22.143Z,213.57
2023-02-25T20:26:06.346Z,203.00
2023-02-25T20:28:41.510Z,209.60
2023-02-25T20:31:18.576Z,198.53
2023-02-25T20:33:55.495Z,206.37
2023-02-25T20:36:32.408Z,203.80
2023-02-25T20:39:28.279Z,199.97
2023-02-25T20:42:05.106Z,205.50
2023-02-25T20:44:40.370Z,201.60
2023-02-25T20:47:23.204Z,198.67
2023-02-25T20:49:58.080Z,201.13
2023-02-25T20:52:33.207Z,205.17
2023-02-25T20:55:10.917Z,199.93
2023-02-25T20:57:46.200Z,213.47
2023-02-25T21:00:21.997Z,212.77
2023-02-25T21:02:57.272Z,204.10
2023-02-25T21:05:31.943Z,205.57
2023-02-25T21:08:07.200Z,199.43
2023-02-25T21:10:44.755Z,196.87
2023-02-25T21:13:20.275Z,203.47
2023-02-25T21:15:55.219Z,195.17
2023-02-25T21:18:29.766Z,198.83
2023-02-25T21:21:05.429Z,194.77
2023-02-25T21:23:40.693Z,190.73
2023-02-25T21:26:17.337Z,206.67
2023-02-25T21:28:51.286Z,201.00
2023-02-25T21:31:26.845Z,209.67
2023-02-25T21:34:03.980Z,191.33
2023-02-25T21:36:38.122Z,190.00
2023-02-25T21:39:13.820Z,203.17
2023-02-25T21:41:49.688Z,205.27
2023-02-25T21:44:23.736Z,201.30
2023-02-25T21:47:00.003Z,192.00
2023-02-25T21:49:33.163Z,202.87
2023-02-25T21:52:07.670Z,202.13
2023-02-25T21:54:41.800Z,203.57
2023-02-25T21:57:19.899Z,193.57
2023-02-25T21:59:55.375Z,195.73
2023-02-25T22:02:31.479Z,198.73
2023-02-25T22:05:07.747Z,196.23
2023-02-25T22:07:41.179Z,203.33
2023-02-25T22:10:17.609Z,200.70
2023-02-25T22:12:53.559Z,191.33
2023-02-25T22:15:28.340Z,194.60
2023-02-25T22:18:03.362Z,187.20
2023-02-25T22:20:39.458Z,189.43
2023-02-25T22:23:14.137Z,187.37
2023-02-25T22:25:48.974Z,188.40
2023-02-25T22:28:25.457Z,187.43
2023-02-25T22:31:00.198Z,178.33
2023-02-25T22:33:35.351Z,188.90
2023-02-25T22:36:12.182Z,183.37
2023-02-25T22:38:49.330Z,180.37
2023-02-25T22:41:26.676Z,191.03
2023-02-25T22:44:05.307Z,186.27
2023-02-25T22:46:43.234Z,191.50
2023-02-25T22:49:18.605Z,185.37
2023-02-25T22:51:54.666Z,181.27
2023-02-25T22:54:30.432Z,186.87
2023-02-25T22:57:05.745Z,188.30
2023-02-25T22:59:43.022Z,184.13
2023-02-25T23:02:18.721Z,184.63
2023-02-25T23:04:54.311Z,199.23
2023-02-25T23:07:29.815Z,175.67
2023-02-25T23:10:05.980Z,183.00
2023-02-25T23:12:41.969Z,188.70
2023-02-25T23:15:20.553Z,182.77
2023-02-25T23:17:56.942Z,181.03
2023-02-25T23:20:32.386Z,187.07
2023-02-25T23:23:08.648Z,180.00
2023-02-25T23:25:46.338Z,176.73
2023-02-25T23:28:21.638Z,185.23
2023-02-25T23:30:59.382Z,186.83
2023-02-25T23:33:35.017Z,185.20
2023-02-25T23:36:12.786Z,186.07
2023-02-25T23:38:49.210Z,187.63
2023-02-25T23:41:25.767Z,186.70
2023-02-25T23:44:04.268Z,189.03
2023-02-25T23:46:44.215Z,182.73
2023-02-25T23:49:21.043Z,187.50
2023-02-25T23:51:57.514Z,188.10
2023-02-25T23:54:33.609Z,180.07
2023-02-25T23:57:09.640Z,176.13
2023-02-25T23:59:45.583Z,172.23
